Pacific Echo — CFN6252 — position and weather

sailwx.info

Track history (hours):
 
Tides and Currents Weather Stations Pressure Air Temp Water Temp Dewpoint Dewpoint Depression Visibility Wind Speed Wind Dir Waves Ship Positions

Pacific Echo

Last reported at 2018-Jul-19 19:47 UTC. Time now 2018-Jul-20 08:27 UTC.
Position N 49°11' W 122°55'.

Type: Other ship. MMSI: 316023437.

Date/timePositionNaut miles runAvg speedWind from/ knotsBaromVisibWave heightAir tempDewpointWater temp
2018-Jul-19 19:47N 49°11' W 122°55'0 0.1
2018-Jul-19 19:27N 49°11' W 122°55'1 1.1
2018-Jul-19 18:56N 49°10' W 122°56'3 5.0
2018-Jul-19 18:26N 49°10' W 122°59'0 0.0
2018-Jul-19 17:33N 49°10' W 122°59'0 1.0
2018-Jul-19 17:26N 49°09' W 122°59'0 0.7
2018-Jul-19 16:53N 49°09' W 122°59'7 4.6
2018-Jul-19 15:25N 49°06' W 123°08'7 0.4
2018-Jul-18 21:12N 49°09' W 122°59'1 2.2
2018-Jul-18 20:48N 49°09' W 122°60'1 1.6
2018-Jul-18 20:23N 49°09' W 122°59'0 0.7
2018-Jul-18 19:59N 49°09' W 122°58'1 2.0
2018-Jul-18 19:29N 49°09' W 123°00'1 0.8
2018-Jul-18 18:40N 49°09' W 123°01'0 0.9
2018-Jul-18 18:29N 49°09' W 123°01'0 0.4
2018-Jul-18 17:57N 49°09' W 123°01'0 0.8
2018-Jul-18 17:23N 49°09' W 123°02'0 0.1
2018-Jul-18 17:00N 49°09' W 123°02'1 2.3
2018-Jul-18 16:30N 49°09' W 123°00'1 1.5
2018-Jul-18 15:59N 49°09' W 123°01'0 1.0
2018-Jul-18 15:30N 49°09' W 123°02'5 0.3
2018-Jul-17 20:56N 49°11' W 122°55'1 0.7
2018-Jul-17 19:53N 49°10' W 122°55'0 0.7
2018-Jul-17 19:30N 49°10' W 122°56'0 0.6
2018-Jul-17 19:00N 49°10' W 122°56'0 0.1
2018-Jul-17 18:30N 49°10' W 122°56'0 0.6
2018-Jul-17 18:00N 49°10' W 122°56'0 0.5
2018-Jul-17 17:30N 49°10' W 122°56'0 0.1
2018-Jul-17 16:56N 49°10' W 122°56'1 1.8
2018-Jul-17 16:30N 49°10' W 122°57'1 1.3
2018-Jul-17 15:47N 49°09' W 122°58'0 0.3
2018-Jul-17 15:29N 49°09' W 122°59'  
2018-Jul-15 09:23N 49°12' W 122°55'0 0.0
2018-Jul-15 08:58N 49°12' W 122°55'0 0.0
2018-Jul-15 08:28N 49°12' W 122°55'0 0.0
2018-Jul-14 15:45N 49°12' W 122°55'0 0.0
2018-Jul-14 15:29N 49°12' W 122°55'0 0.0
2018-Jul-14 15:00N 49°12' W 122°55'0 0.0
2018-Jul-14 14:30N 49°12' W 122°55'0 0.0
2018-Jul-14 13:30N 49°12' W 122°55'0 0.0
2018-Jul-14 13:00N 49°12' W 122°55'0 0.0
2018-Jul-14 12:30N 49°12' W 122°55'0 0.0
2018-Jul-14 12:00N 49°12' W 122°55'0 0.0
2018-Jul-14 11:30N 49°12' W 122°55'0 0.0
2018-Jul-14 11:00N 49°12' W 122°55'0 0.0
2018-Jul-14 10:30N 49°12' W 122°55'0 0.0
2018-Jul-14 10:00N 49°12' W 122°55'0 0.0
2018-Jul-14 09:30N 49°12' W 122°55'0 0.0
2018-Jul-14 09:00N 49°12' W 122°55'0 0.0
2018-Jul-14 08:29N 49°12' W 122°55'0 0.0
2018-Jul-14 07:58N 49°12' W 122°55'0 0.0
2018-Jul-14 07:30N 49°12' W 122°55'0 0.0
2018-Jul-14 07:00N 49°12' W 122°55'0 0.0
2018-Jul-14 06:30N 49°12' W 122°55'0 0.0
2018-Jul-14 06:00N 49°12' W 122°55'0 0.0
2018-Jul-14 05:30N 49°12' W 122°55'0 0.0
2018-Jul-14 05:01N 49°12' W 122°55'0 0.0
2018-Jul-14 04:29N 49°12' W 122°55'0 0.0
2018-Jul-14 04:00N 49°12' W 122°55'0 0.0
2018-Jul-14 03:28N 49°12' W 122°55'0 0.0
2018-Jul-14 03:00N 49°12' W 122°55'0 0.0
2018-Jul-14 02:28N 49°12' W 122°55'0 0.0
2018-Jul-14 02:00N 49°12' W 122°55'0 0.0
2018-Jul-14 01:28N 49°12' W 122°55'0 0.0
2018-Jul-14 01:00N 49°12' W 122°55'0 0.0
2018-Jul-14 00:30N 49°12' W 122°55'0 0.0
2018-Jul-14 00:00N 49°12' W 122°55'0 0.0
2018-Jul-13 23:30N 49°12' W 122°55'0 0.0
2018-Jul-13 23:00N 49°12' W 122°55'0 0.0
2018-Jul-13 22:30N 49°12' W 122°55'0 0.0
2018-Jul-13 22:00N 49°12' W 122°55'5 9.1
2018-Jul-13 21:30N 49°09' W 123°01'6 8.1
2018-Jul-13 20:47N 49°07' W 123°09'828.8
2018-Jul-13 20:30N 49°09' W 122°57'0 0.2
2018-Jul-13 19:59N 49°09' W 122°57'0 0.2
2018-Jul-13 19:30N 49°09' W 122°57'0 0.9
2018-Jul-13 19:00N 49°09' W 122°58'0 0.5
2018-Jul-13 18:29N 49°09' W 122°58'0 0.6
2018-Jul-13 18:00N 49°09' W 122°58'1 1.2
2018-Jul-13 17:30N 49°09' W 122°58'1 1.0
2018-Jul-13 17:00N 49°09' W 122°58'0 0.1
2018-Jul-13 16:30N 49°09' W 122°58'0 0.5
2018-Jul-13 16:00N 49°09' W 122°59'3 6.3
2018-Jul-13 15:30N 49°12' W 122°55'0 0.0
2018-Jul-13 15:00N 49°12' W 122°55'0 0.0
2018-Jul-13 14:29N 49°12' W 122°55'0 0.0
2018-Jul-13 13:30N 49°12' W 122°55'0 0.0
2018-Jul-13 13:00N 49°12' W 122°55'0 0.0
2018-Jul-13 12:30N 49°12' W 122°55'0 0.0
2018-Jul-13 12:00N 49°12' W 122°55'0 0.0
2018-Jul-13 11:30N 49°12' W 122°55'0 0.0
2018-Jul-13 11:00N 49°12' W 122°55'0 0.0
2018-Jul-13 10:30N 49°12' W 122°55'0 0.0
2018-Jul-13 09:59N 49°12' W 122°55'0 0.0
2018-Jul-13 09:30N 49°12' W 122°55'0 0.0
2018-Jul-13 08:59N 49°12' W 122°55'0 0.0
2018-Jul-13 08:30N 49°12' W 122°55'0 0.0
2018-Jul-13 08:00N 49°12' W 122°55'0 0.0
2018-Jul-13 07:30N 49°12' W 122°55'0 0.0
2018-Jul-13 07:00N 49°12' W 122°55'0 0.0
2018-Jul-13 06:30N 49°12' W 122°55'0 0.0
2018-Jul-13 06:00N 49°12' W 122°55'0 0.0
2018-Jul-13 05:30N 49°12' W 122°55'0 0.0
2018-Jul-12 11:42N 49°12' W 122°55'0 0.0
2018-Jul-12 11:29N 49°12' W 122°55'0 0.0
2018-Jul-12 11:00N 49°12' W 122°55'0 0.0
2018-Jul-12 10:30N 49°12' W 122°55'0 0.0
2018-Jul-12 10:00N 49°12' W 122°55'0 0.0
2018-Jul-12 09:30N 49°12' W 122°55'0 0.0
2018-Jul-12 09:00N 49°12' W 122°55'0 0.0
2018-Jul-12 08:30N 49°12' W 122°55'0 0.0
2018-Jul-12 08:01N 49°12' W 122°55'0 0.0
2018-Jul-12 07:29N 49°12' W 122°55'0 0.0
2018-Jul-12 07:00N 49°12' W 122°55'0 0.0
2018-Jul-12 06:30N 49°12' W 122°55'0 0.0
2018-Jul-12 06:01N 49°12' W 122°55'0 0.0
2018-Jul-12 05:30N 49°12' W 122°55'0 0.0
2018-Jul-12 04:59N 49°12' W 122°55'0 0.0
2018-Jul-12 04:30N 49°12' W 122°55'0 0.0
2018-Jul-12 04:00N 49°12' W 122°55'0 0.0
2018-Jul-12 03:31N 49°12' W 122°55'0 0.0
2018-Jul-12 03:00N 49°12' W 122°55'0 0.0
2018-Jul-12 02:30N 49°12' W 122°55'0 0.0
2018-Jul-12 02:00N 49°12' W 122°55'0 0.0
2018-Jul-12 01:30N 49°12' W 122°55'0 0.0
2018-Jul-12 01:00N 49°12' W 122°55'0 0.0
2018-Jul-12 00:29N 49°12' W 122°55'0 0.0
2018-Jul-12 00:00N 49°12' W 122°55'0 0.0
2018-Jul-11 23:30N 49°12' W 122°55'0 0.0
2018-Jul-11 23:00N 49°12' W 122°55'0 0.0
2018-Jul-11 22:29N 49°12' W 122°55'0 0.0
2018-Jul-11 22:00N 49°12' W 122°55'0 0.0
2018-Jul-11 21:30N 49°12' W 122°55'0 0.0
2018-Jul-11 21:01N 49°12' W 122°55'0 0.0
2018-Jul-11 20:30N 49°12' W 122°55'0 0.0
2018-Jul-11 20:00N 49°12' W 122°55'0 0.0
2018-Jul-11 19:30N 49°12' W 122°55'0 0.0
2018-Jul-11 19:00N 49°12' W 122°55'0 0.0
2018-Jul-11 18:30N 49°12' W 122°55'0 0.0
2018-Jul-11 18:00N 49°12' W 122°55'0 0.0
2018-Jul-11 17:30N 49°12' W 122°55'0 0.0
2018-Jul-11 17:00N 49°12' W 122°55'0 0.0
2018-Jul-11 16:30N 49°12' W 122°55'0 0.0
2018-Jul-11 16:00N 49°12' W 122°55'0 0.0
2018-Jul-11 15:30N 49°12' W 122°55'0 0.0
2018-Jul-11 15:01N 49°12' W 122°55'0 0.0
2018-Jul-11 14:30N 49°12' W 122°55'0 0.0
2018-Jul-11 14:00N 49°12' W 122°55'0 0.0
2018-Jul-11 13:30N 49°12' W 122°55'0 0.0
2018-Jul-11 13:01N 49°12' W 122°55'0 0.0
2018-Jul-11 12:30N 49°12' W 122°55'0 0.0
2018-Jul-11 12:00N 49°12' W 122°55'0 0.0
2018-Jul-11 11:29N 49°12' W 122°55'0 0.0
2018-Jul-11 11:00N 49°12' W 122°55'0 0.0
2018-Jul-11 10:30N 49°12' W 122°55'0 0.0
2018-Jul-11 09:59N 49°12' W 122°55'0 0.0
2018-Jul-11 09:31N 49°12' W 122°55'0 0.0
2018-Jul-11 09:00N 49°12' W 122°55'0 0.0
2018-Jul-11 08:30N 49°12' W 122°55'0 0.0
2018-Jul-11 08:00N 49°12' W 122°55'0 0.0
2018-Jul-11 07:30N 49°12' W 122°55'0 0.0
2018-Jul-11 07:00N 49°12' W 122°55'0 0.0
2018-Jul-11 06:30N 49°12' W 122°55'0 0.0
2018-Jul-11 06:00N 49°12' W 122°55'0 0.0
2018-Jul-11 05:30N 49°12' W 122°55'0 0.0
2018-Jul-11 05:00N 49°12' W 122°55'0 0.0
2018-Jul-11 04:30N 49°12' W 122°55'0 0.0
2018-Jul-11 04:00N 49°12' W 122°55'0 0.0
2018-Jul-11 03:30N 49°12' W 122°55'0 0.0
2018-Jul-11 03:01N 49°12' W 122°55'0 0.0
2018-Jul-11 02:29N 49°12' W 122°55'0 0.0
2018-Jul-11 02:00N 49°12' W 122°55'0 0.0
2018-Jul-11 01:30N 49°12' W 122°55'0 0.0
2018-Jul-11 01:00N 49°12' W 122°55'0 0.0
2018-Jul-11 00:28N 49°12' W 122°55'0 0.0
2018-Jul-11 00:00N 49°12' W 122°55'0 0.0
2018-Jul-10 23:30N 49°12' W 122°55'0 0.0
2018-Jul-10 23:00N 49°12' W 122°55'0 0.0
2018-Jul-10 22:30N 49°12' W 122°55'0 0.0
2018-Jul-10 22:00N 49°12' W 122°55'0 0.0
2018-Jul-10 21:30N 49°12' W 122°55'0 0.0
2018-Jul-10 21:00N 49°12' W 122°55'0 0.0
2018-Jul-10 20:30N 49°12' W 122°55'0 0.5
2018-Jul-10 19:59N 49°11' W 122°55'1 1.1
2018-Jul-10 19:30N 49°11' W 122°55'0 0.5
2018-Jul-10 19:00N 49°11' W 122°55'0 0.9
2018-Jul-10 18:31N 49°11' W 122°55'1 1.4
2018-Jul-10 18:00N 49°11' W 122°55'1 2.1
2018-Jul-10 17:30N 49°12' W 122°55'1 2.0
2018-Jul-10 17:00N 49°11' W 122°55'0 0.4
2018-Jul-10 16:30N 49°11' W 122°55'1 1.2
2018-Jul-10 16:00N 49°11' W 122°55'0 0.8
2018-Jul-10 15:29N 49°11' W 122°55'1 1.8
2018-Jul-10 15:00N 49°12' W 122°55'0 0.0
2018-Jul-10 14:30N 49°12' W 122°55'0 0.0
2018-Jul-10 14:00N 49°12' W 122°55'0 0.0
2018-Jul-10 13:30N 49°12' W 122°55'0 0.0
2018-Jul-10 13:01N 49°12' W 122°55'0 0.0
2018-Jul-10 12:30N 49°12' W 122°55'0 0.0
2018-Jul-10 12:00N 49°12' W 122°55'0 0.0
2018-Jul-10 11:30N 49°12' W 122°55'0 0.0
2018-Jul-10 10:59N 49°12' W 122°55'0 0.0
2018-Jul-10 10:30N 49°12' W 122°55'0 0.0
2018-Jul-10 10:00N 49°12' W 122°55'0 0.0
2018-Jul-10 09:30N 49°12' W 122°55'0 0.0
2018-Jul-10 08:59N 49°12' W 122°55'0 0.0
2018-Jul-10 08:30N 49°12' W 122°55'0 0.0
2018-Jul-10 08:00N 49°12' W 122°55'0 0.0
2018-Jul-10 07:31N 49°12' W 122°55'0 0.0
2018-Jul-10 07:00N 49°12' W 122°55'0 0.0
2018-Jul-10 06:30N 49°12' W 122°55'0 0.0
2018-Jul-10 06:00N 49°12' W 122°55'0 0.0
2018-Jul-10 05:30N 49°12' W 122°55'0 0.0
2018-Jul-10 05:00N 49°12' W 122°55'0 0.0
2018-Jul-10 04:30N 49°12' W 122°55'0 0.0
2018-Jul-10 04:00N 49°12' W 122°55'0 0.0
2018-Jul-10 03:30N 49°12' W 122°55'0 0.0
2018-Jul-10 03:00N 49°12' W 122°55'0 0.0
2018-Jul-10 02:29N 49°12' W 122°55'0 0.0
2018-Jul-10 02:00N 49°12' W 122°55'0 0.0
2018-Jul-10 01:30N 49°12' W 122°55'0 0.0
2018-Jul-10 00:59N 49°12' W 122°55'0 0.0
2018-Jul-10 00:30N 49°12' W 122°55'0 0.0
2018-Jul-09 23:59N 49°12' W 122°55'0 0.0
2018-Jul-09 23:30N 49°12' W 122°55'0 0.0
2018-Jul-09 23:00N 49°12' W 122°55'0 0.0
2018-Jul-09 22:28N 49°12' W 122°55'0 0.2
2018-Jul-09 22:00N 49°12' W 122°55'1525.8
2018-Jul-09 21:26N 49°07' W 123°16'2 4.0
2018-Jul-09 20:58N 49°06' W 123°19'0 0.1
2018-Jul-09 20:07N 49°06' W 123°19'1 4.9
2018-Jul-09 19:57N 49°06' W 123°18'  
Track history (hours):
 
Tides and Currents Weather Stations Pressure Air Temp Water Temp Dewpoint Dewpoint Depression Visibility Wind Speed Wind Dir Waves Ship Positions

Pacific Echo

Last reported at 2018-Jul-19 19:47 UTC. Time now 2018-Jul-20 08:27 UTC.
Position N 49°11' W 122°55'.

Type: Other ship. MMSI: 316023437.

Date/timePositionNaut miles runAvg speedWind from/ knotsBaromVisibWave heightAir tempDewpointWater temp
2018-Jul-19 19:47N 49°11' W 122°55'0 0.1
2018-Jul-19 19:27N 49°11' W 122°55'1 1.1
2018-Jul-19 18:56N 49°10' W 122°56'3 5.0
2018-Jul-19 18:26N 49°10' W 122°59'0 0.0
2018-Jul-19 17:33N 49°10' W 122°59'0 1.0
2018-Jul-19 17:26N 49°09' W 122°59'0 0.7
2018-Jul-19 16:53N 49°09' W 122°59'7 4.6
2018-Jul-19 15:25N 49°06' W 123°08'7 0.4
2018-Jul-18 21:12N 49°09' W 122°59'1 2.2
2018-Jul-18 20:48N 49°09' W 122°60'1 1.6
2018-Jul-18 20:23N 49°09' W 122°59'0 0.7
2018-Jul-18 19:59N 49°09' W 122°58'1 2.0
2018-Jul-18 19:29N 49°09' W 123°00'1 0.8
2018-Jul-18 18:40N 49°09' W 123°01'0 0.9
2018-Jul-18 18:29N 49°09' W 123°01'0 0.4
2018-Jul-18 17:57N 49°09' W 123°01'0 0.8
2018-Jul-18 17:23N 49°09' W 123°02'0 0.1
2018-Jul-18 17:00N 49°09' W 123°02'1 2.3
2018-Jul-18 16:30N 49°09' W 123°00'1 1.5
2018-Jul-18 15:59N 49°09' W 123°01'0 1.0
2018-Jul-18 15:30N 49°09' W 123°02'5 0.3
2018-Jul-17 20:56N 49°11' W 122°55'1 0.7
2018-Jul-17 19:53N 49°10' W 122°55'0 0.7
2018-Jul-17 19:30N 49°10' W 122°56'0 0.6
2018-Jul-17 19:00N 49°10' W 122°56'0 0.1
2018-Jul-17 18:30N 49°10' W 122°56'0 0.6
2018-Jul-17 18:00N 49°10' W 122°56'0 0.5
2018-Jul-17 17:30N 49°10' W 122°56'0 0.1
2018-Jul-17 16:56N 49°10' W 122°56'1 1.8
2018-Jul-17 16:30N 49°10' W 122°57'1 1.3
2018-Jul-17 15:47N 49°09' W 122°58'0 0.3
2018-Jul-17 15:29N 49°09' W 122°59'  
2018-Jul-15 09:23N 49°12' W 122°55'0 0.0
2018-Jul-15 08:58N 49°12' W 122°55'0 0.0
2018-Jul-15 08:28N 49°12' W 122°55'0 0.0
2018-Jul-14 15:45N 49°12' W 122°55'0 0.0
2018-Jul-14 15:29N 49°12' W 122°55'0 0.0
2018-Jul-14 15:00N 49°12' W 122°55'0 0.0
2018-Jul-14 14:30N 49°12' W 122°55'0 0.0
2018-Jul-14 13:30N 49°12' W 122°55'0 0.0
2018-Jul-14 13:00N 49°12' W 122°55'0 0.0
2018-Jul-14 12:30N 49°12' W 122°55'0 0.0
2018-Jul-14 12:00N 49°12' W 122°55'0 0.0
2018-Jul-14 11:30N 49°12' W 122°55'0 0.0
2018-Jul-14 11:00N 49°12' W 122°55'0 0.0
2018-Jul-14 10:30N 49°12' W 122°55'0 0.0
2018-Jul-14 10:00N 49°12' W 122°55'0 0.0
2018-Jul-14 09:30N 49°12' W 122°55'0 0.0
2018-Jul-14 09:00N 49°12' W 122°55'0 0.0
2018-Jul-14 08:29N 49°12' W 122°55'0 0.0
2018-Jul-14 07:58N 49°12' W 122°55'0 0.0
2018-Jul-14 07:30N 49°12' W 122°55'0 0.0
2018-Jul-14 07:00N 49°12' W 122°55'0 0.0
2018-Jul-14 06:30N 49°12' W 122°55'0 0.0
2018-Jul-14 06:00N 49°12' W 122°55'0 0.0
2018-Jul-14 05:30N 49°12' W 122°55'0 0.0
2018-Jul-14 05:01N 49°12' W 122°55'0 0.0
2018-Jul-14 04:29N 49°12' W 122°55'0 0.0
2018-Jul-14 04:00N 49°12' W 122°55'0 0.0
2018-Jul-14 03:28N 49°12' W 122°55'0 0.0
2018-Jul-14 03:00N 49°12' W 122°55'0 0.0
2018-Jul-14 02:28N 49°12' W 122°55'0 0.0
2018-Jul-14 02:00N 49°12' W 122°55'0 0.0
2018-Jul-14 01:28N 49°12' W 122°55'0 0.0
2018-Jul-14 01:00N 49°12' W 122°55'0 0.0
2018-Jul-14 00:30N 49°12' W 122°55'0 0.0
2018-Jul-14 00:00N 49°12' W 122°55'0 0.0
2018-Jul-13 23:30N 49°12' W 122°55'0 0.0
2018-Jul-13 23:00N 49°12' W 122°55'0 0.0
2018-Jul-13 22:30N 49°12' W 122°55'0 0.0
2018-Jul-13 22:00N 49°12' W 122°55'5 9.1
2018-Jul-13 21:30N 49°09' W 123°01'6 8.1
2018-Jul-13 20:47N 49°07' W 123°09'828.8
2018-Jul-13 20:30N 49°09' W 122°57'0 0.2
2018-Jul-13 19:59N 49°09' W 122°57'0 0.2
2018-Jul-13 19:30N 49°09' W 122°57'0 0.9
2018-Jul-13 19:00N 49°09' W 122°58'0 0.5
2018-Jul-13 18:29N 49°09' W 122°58'0 0.6
2018-Jul-13 18:00N 49°09' W 122°58'1 1.2
2018-Jul-13 17:30N 49°09' W 122°58'1 1.0
2018-Jul-13 17:00N 49°09' W 122°58'0 0.1
2018-Jul-13 16:30N 49°09' W 122°58'0 0.5
2018-Jul-13 16:00N 49°09' W 122°59'3 6.3
2018-Jul-13 15:30N 49°12' W 122°55'0 0.0
2018-Jul-13 15:00N 49°12' W 122°55'0 0.0
2018-Jul-13 14:29N 49°12' W 122°55'0 0.0
2018-Jul-13 13:30N 49°12' W 122°55'0 0.0
2018-Jul-13 13:00N 49°12' W 122°55'0 0.0
2018-Jul-13 12:30N 49°12' W 122°55'0 0.0
2018-Jul-13 12:00N 49°12' W 122°55'0 0.0
2018-Jul-13 11:30N 49°12' W 122°55'0 0.0
2018-Jul-13 11:00N 49°12' W 122°55'0 0.0
2018-Jul-13 10:30N 49°12' W 122°55'0 0.0
2018-Jul-13 09:59N 49°12' W 122°55'0 0.0
2018-Jul-13 09:30N 49°12' W 122°55'0 0.0
2018-Jul-13 08:59N 49°12' W 122°55'0 0.0
2018-Jul-13 08:30N 49°12' W 122°55'0 0.0
2018-Jul-13 08:00N 49°12' W 122°55'0 0.0
2018-Jul-13 07:30N 49°12' W 122°55'0 0.0
2018-Jul-13 07:00N 49°12' W 122°55'0 0.0
2018-Jul-13 06:30N 49°12' W 122°55'0 0.0
2018-Jul-13 06:00N 49°12' W 122°55'0 0.0
2018-Jul-13 05:30N 49°12' W 122°55'0 0.0
2018-Jul-12 11:42N 49°12' W 122°55'0 0.0
2018-Jul-12 11:29N 49°12' W 122°55'0 0.0
2018-Jul-12 11:00N 49°12' W 122°55'0 0.0
2018-Jul-12 10:30N 49°12' W 122°55'0 0.0
2018-Jul-12 10:00N 49°12' W 122°55'0 0.0
2018-Jul-12 09:30N 49°12' W 122°55'0 0.0
2018-Jul-12 09:00N 49°12' W 122°55'0 0.0
2018-Jul-12 08:30N 49°12' W 122°55'0 0.0
2018-Jul-12 08:01N 49°12' W 122°55'0 0.0
2018-Jul-12 07:29N 49°12' W 122°55'0 0.0
2018-Jul-12 07:00N 49°12' W 122°55'0 0.0
2018-Jul-12 06:30N 49°12' W 122°55'0 0.0
2018-Jul-12 06:01N 49°12' W 122°55'0 0.0
2018-Jul-12 05:30N 49°12' W 122°55'0 0.0
2018-Jul-12 04:59N 49°12' W 122°55'0 0.0
2018-Jul-12 04:30N 49°12' W 122°55'0 0.0
2018-Jul-12 04:00N 49°12' W 122°55'0 0.0
2018-Jul-12 03:31N 49°12' W 122°55'0 0.0
2018-Jul-12 03:00N 49°12' W 122°55'0 0.0
2018-Jul-12 02:30N 49°12' W 122°55'0 0.0
2018-Jul-12 02:00N 49°12' W 122°55'0 0.0
2018-Jul-12 01:30N 49°12' W 122°55'0 0.0
2018-Jul-12 01:00N 49°12' W 122°55'0 0.0
2018-Jul-12 00:29N 49°12' W 122°55'0 0.0
2018-Jul-12 00:00N 49°12' W 122°55'0 0.0
2018-Jul-11 23:30N 49°12' W 122°55'0 0.0
2018-Jul-11 23:00N 49°12' W 122°55'0 0.0
2018-Jul-11 22:29N 49°12' W 122°55'0 0.0
2018-Jul-11 22:00N 49°12' W 122°55'0 0.0
2018-Jul-11 21:30N 49°12' W 122°55'0 0.0
2018-Jul-11 21:01N 49°12' W 122°55'0 0.0
2018-Jul-11 20:30N 49°12' W 122°55'0 0.0
2018-Jul-11 20:00N 49°12' W 122°55'0 0.0
2018-Jul-11 19:30N 49°12' W 122°55'0 0.0
2018-Jul-11 19:00N 49°12' W 122°55'0 0.0
2018-Jul-11 18:30N 49°12' W 122°55'0 0.0
2018-Jul-11 18:00N 49°12' W 122°55'0 0.0
2018-Jul-11 17:30N 49°12' W 122°55'0 0.0
2018-Jul-11 17:00N 49°12' W 122°55'0 0.0
2018-Jul-11 16:30N 49°12' W 122°55'0 0.0
2018-Jul-11 16:00N 49°12' W 122°55'0 0.0
2018-Jul-11 15:30N 49°12' W 122°55'0 0.0
2018-Jul-11 15:01N 49°12' W 122°55'0 0.0
2018-Jul-11 14:30N 49°12' W 122°55'0 0.0
2018-Jul-11 14:00N 49°12' W 122°55'0 0.0
2018-Jul-11 13:30N 49°12' W 122°55'0 0.0
2018-Jul-11 13:01N 49°12' W 122°55'0 0.0
2018-Jul-11 12:30N 49°12' W 122°55'0 0.0
2018-Jul-11 12:00N 49°12' W 122°55'0 0.0
2018-Jul-11 11:29N 49°12' W 122°55'0 0.0
2018-Jul-11 11:00N 49°12' W 122°55'0 0.0
2018-Jul-11 10:30N 49°12' W 122°55'0 0.0
2018-Jul-11 09:59N 49°12' W 122°55'0 0.0
2018-Jul-11 09:31N 49°12' W 122°55'0 0.0
2018-Jul-11 09:00N 49°12' W 122°55'0 0.0
2018-Jul-11 08:30N 49°12' W 122°55'0 0.0
2018-Jul-11 08:00N 49°12' W 122°55'0 0.0
2018-Jul-11 07:30N 49°12' W 122°55'0 0.0
2018-Jul-11 07:00N 49°12' W 122°55'0 0.0
2018-Jul-11 06:30N 49°12' W 122°55'0 0.0
2018-Jul-11 06:00N 49°12' W 122°55'0 0.0
2018-Jul-11 05:30N 49°12' W 122°55'0 0.0
2018-Jul-11 05:00N 49°12' W 122°55'0 0.0
2018-Jul-11 04:30N 49°12' W 122°55'0 0.0
2018-Jul-11 04:00N 49°12' W 122°55'0 0.0
2018-Jul-11 03:30N 49°12' W 122°55'0 0.0
2018-Jul-11 03:01N 49°12' W 122°55'0 0.0
2018-Jul-11 02:29N 49°12' W 122°55'0 0.0
2018-Jul-11 02:00N 49°12' W 122°55'0 0.0
2018-Jul-11 01:30N 49°12' W 122°55'0 0.0
2018-Jul-11 01:00N 49°12' W 122°55'0 0.0
2018-Jul-11 00:28N 49°12' W 122°55'0 0.0
2018-Jul-11 00:00N 49°12' W 122°55'0 0.0
2018-Jul-10 23:30N 49°12' W 122°55'0 0.0
2018-Jul-10 23:00N 49°12' W 122°55'0 0.0
2018-Jul-10 22:30N 49°12' W 122°55'0 0.0
2018-Jul-10 22:00N 49°12' W 122°55'0 0.0
2018-Jul-10 21:30N 49°12' W 122°55'0 0.0
2018-Jul-10 21:00N 49°12' W 122°55'0 0.0
2018-Jul-10 20:30N 49°12' W 122°55'0 0.5
2018-Jul-10 19:59N 49°11' W 122°55'1 1.1
2018-Jul-10 19:30N 49°11' W 122°55'0 0.5
2018-Jul-10 19:00N 49°11' W 122°55'0 0.9
2018-Jul-10 18:31N 49°11' W 122°55'1 1.4
2018-Jul-10 18:00N 49°11' W 122°55'1 2.1
2018-Jul-10 17:30N 49°12' W 122°55'1 2.0
2018-Jul-10 17:00N 49°11' W 122°55'0 0.4
2018-Jul-10 16:30N 49°11' W 122°55'1 1.2
2018-Jul-10 16:00N 49°11' W 122°55'0 0.8
2018-Jul-10 15:29N 49°11' W 122°55'1 1.8
2018-Jul-10 15:00N 49°12' W 122°55'0 0.0
2018-Jul-10 14:30N 49°12' W 122°55'0 0.0
2018-Jul-10 14:00N 49°12' W 122°55'0 0.0
2018-Jul-10 13:30N 49°12' W 122°55'0 0.0
2018-Jul-10 13:01N 49°12' W 122°55'0 0.0
2018-Jul-10 12:30N 49°12' W 122°55'0 0.0
2018-Jul-10 12:00N 49°12' W 122°55'0 0.0
2018-Jul-10 11:30N 49°12' W 122°55'0 0.0
2018-Jul-10 10:59N 49°12' W 122°55'0 0.0
2018-Jul-10 10:30N 49°12' W 122°55'0 0.0
2018-Jul-10 10:00N 49°12' W 122°55'0 0.0
2018-Jul-10 09:30N 49°12' W 122°55'0 0.0
2018-Jul-10 08:59N 49°12' W 122°55'0 0.0
2018-Jul-10 08:30N 49°12' W 122°55'0 0.0
2018-Jul-10 08:00N 49°12' W 122°55'0 0.0
2018-Jul-10 07:31N 49°12' W 122°55'0 0.0
2018-Jul-10 07:00N 49°12' W 122°55'0 0.0
2018-Jul-10 06:30N 49°12' W 122°55'0 0.0
2018-Jul-10 06:00N 49°12' W 122°55'0 0.0
2018-Jul-10 05:30N 49°12' W 122°55'0 0.0
2018-Jul-10 05:00N 49°12' W 122°55'0 0.0
2018-Jul-10 04:30N 49°12' W 122°55'0 0.0
2018-Jul-10 04:00N 49°12' W 122°55'0 0.0
2018-Jul-10 03:30N 49°12' W 122°55'0 0.0
2018-Jul-10 03:00N 49°12' W 122°55'0 0.0
2018-Jul-10 02:29N 49°12' W 122°55'0 0.0
2018-Jul-10 02:00N 49°12' W 122°55'0 0.0
2018-Jul-10 01:30N 49°12' W 122°55'0 0.0
2018-Jul-10 00:59N 49°12' W 122°55'0 0.0
2018-Jul-10 00:30N 49°12' W 122°55'0 0.0
2018-Jul-09 23:59N 49°12' W 122°55'0 0.0
2018-Jul-09 23:30N 49°12' W 122°55'0 0.0
2018-Jul-09 23:00N 49°12' W 122°55'0 0.0
2018-Jul-09 22:28N 49°12' W 122°55'0 0.2
2018-Jul-09 22:00N 49°12' W 122°55'1525.8
2018-Jul-09 21:26N 49°07' W 123°16'2 4.0
2018-Jul-09 20:58N 49°06' W 123°19'0 0.1
2018-Jul-09 20:07N 49°06' W 123°19'1 4.9
2018-Jul-09 19:57N 49°06' W 123°18'  

Dump ship's entire track history